sensor_id;sensor_type;location;lat;lon;timestamp;pressure;altitude;pressure_sealevel;temperature;humidity
77227;BME280;66234;47.642;19.144;2023-03-21T00:02:21;100288.50;;;7.62;74.84
77227;BME280;66234;47.642;19.144;2023-03-21T00:05:25;100300.69;;;7.71;74.95
77227;BME280;66234;47.642;19.144;2023-03-21T00:08:28;100298.50;;;7.60;74.38
77227;BME280;66234;47.642;19.144;2023-03-21T00:11:30;100296.31;;;7.49;74.35
77227;BME280;66234;47.642;19.144;2023-03-21T00:14:33;100293.00;;;7.61;75.68
77227;BME280;66234;47.642;19.144;2023-03-21T00:17:36;100298.69;;;7.73;74.24
77227;BME280;66234;47.642;19.144;2023-03-21T00:20:41;100296.13;;;7.65;74.85
77227;BME280;66234;47.642;19.144;2023-03-21T00:23:49;100304.59;;;7.54;74.84
77227;BME280;66234;47.642;19.144;2023-03-21T00:26:53;100294.50;;;7.49;75.15
77227;BME280;66234;47.642;19.144;2023-03-21T00:30:12;100292.88;;;7.34;75.63
77227;BME280;66234;47.642;19.144;2023-03-21T00:33:16;100296.84;;;7.38;76.31
77227;BME280;66234;47.642;19.144;2023-03-21T00:36:27;100289.38;;;7.33;75.40
77227;BME280;66234;47.642;19.144;2023-03-21T00:39:30;100278.31;;;7.30;76.00
77227;BME280;66234;47.642;19.144;2023-03-21T00:42:33;100273.47;;;7.19;76.36
77227;BME280;66234;47.642;19.144;2023-03-21T00:45:38;100278.22;;;7.09;76.69
77227;BME280;66234;47.642;19.144;2023-03-21T00:48:40;100276.38;;;7.09;76.55
77227;BME280;66234;47.642;19.144;2023-03-21T00:51:43;100269.25;;;7.10;76.84
77227;BME280;66234;47.642;19.144;2023-03-21T00:54:46;100262.19;;;7.02;76.91
77227;BME280;66234;47.642;19.144;2023-03-21T00:57:48;100267.13;;;7.05;76.45
77227;BME280;66234;47.642;19.144;2023-03-21T01:01:03;100259.53;;;7.02;76.87
77227;BME280;66234;47.642;19.144;2023-03-21T01:04:08;100260.72;;;7.00;76.87
77227;BME280;66234;47.642;19.144;2023-03-21T01:07:16;100265.03;;;7.01;76.69
77227;BME280;66234;47.642;19.144;2023-03-21T01:10:19;100261.25;;;6.95;76.85
77227;BME280;66234;47.642;19.144;2023-03-21T01:13:23;100257.44;;;6.98;77.63
77227;BME280;66234;47.642;19.144;2023-03-21T01:16:26;100243.03;;;6.92;77.06
77227;BME280;66234;47.642;19.144;2023-03-21T01:19:29;100247.25;;;6.87;77.53
77227;BME280;66234;47.642;19.144;2023-03-21T01:22:52;100250.00;;;6.79;77.52
77227;BME280;66234;47.642;19.144;2023-03-21T01:25:55;100248.69;;;6.74;77.51
77227;BME280;66234;47.642;19.144;2023-03-21T01:28:58;100244.09;;;6.68;77.69
77227;BME280;66234;47.642;19.144;2023-03-21T01:32:01;100242.84;;;6.64;78.45
77227;BME280;66234;47.642;19.144;2023-03-21T01:35:04;100252.34;;;6.59;78.02
77227;BME280;66234;47.642;19.144;2023-03-21T01:38:08;100250.53;;;6.59;78.14
77227;BME280;66234;47.642;19.144;2023-03-21T01:44:29;100250.03;;;6.56;78.00
77227;BME280;66234;47.642;19.144;2023-03-21T01:47:33;100240.72;;;6.60;78.02
77227;BME280;66234;47.642;19.144;2023-03-21T01:50:45;100241.19;;;6.63;77.79
77227;BME280;66234;47.642;19.144;2023-03-21T01:53:57;100249.25;;;6.70;77.59
77227;BME280;66234;47.642;19.144;2023-03-21T01:57:08;100245.84;;;6.76;77.88
77227;BME280;66234;47.642;19.144;2023-03-21T02:00:14;100254.66;;;6.77;77.67
77227;BME280;66234;47.642;19.144;2023-03-21T02:03:22;100252.91;;;6.98;78.17
77227;BME280;66234;47.642;19.144;2023-03-21T02:07:07;100254.03;;;7.04;77.44
77227;BME280;66234;47.642;19.144;2023-03-21T02:10:23;100252.81;;;7.06;77.48
77227;BME280;66234;47.642;19.144;2023-03-21T02:13:29;100246.50;;;7.07;77.20
77227;BME280;66234;47.642;19.144;2023-03-21T02:23:50;100253.47;;;7.08;77.08
77227;BME280;66234;47.642;19.144;2023-03-21T02:44:02;100250.41;;;7.40;77.11
77227;BME280;66234;47.642;19.144;2023-03-21T02:47:13;100247.44;;;7.50;76.43
77227;BME280;66234;47.642;19.144;2023-03-21T02:50:21;100244.03;;;7.56;76.79
77227;BME280;66234;47.642;19.144;2023-03-21T02:53:30;100250.63;;;7.60;76.46
77227;BME280;66234;47.642;19.144;2023-03-21T02:56:35;100242.63;;;7.60;76.80
77227;BME280;66234;47.642;19.144;2023-03-21T02:59:39;100239.59;;;7.63;77.32
77227;BME280;66234;47.642;19.144;2023-03-21T03:02:59;100243.28;;;7.62;76.81
77227;BME280;66234;47.642;19.144;2023-03-21T03:06:19;100242.03;;;7.58;76.90
77227;BME280;66234;47.642;19.144;2023-03-21T03:20:00;100250.13;;;7.50;78.37
77227;BME280;66234;47.642;19.144;2023-03-21T03:26:30;100248.91;;;7.52;78.87
77227;BME280;66234;47.642;19.144;2023-03-21T03:29:38;100251.75;;;7.51;78.17
77227;BME280;66234;47.642;19.144;2023-03-21T03:32:49;100248.19;;;7.44;78.68
77227;BME280;66234;47.642;19.144;2023-03-21T03:35:54;100251.66;;;7.44;79.31
77227;BME280;66234;47.642;19.144;2023-03-21T03:39:11;100257.63;;;7.46;79.13
77227;BME280;66234;47.642;19.144;2023-03-21T03:42:21;100242.69;;;7.45;79.17
77227;BME280;66234;47.642;19.144;2023-03-21T03:45:52;100249.28;;;7.49;79.00
77227;BME280;66234;47.642;19.144;2023-03-21T03:49:03;100258.28;;;7.48;79.45
77227;BME280;66234;47.642;19.144;2023-03-21T03:52:16;100255.06;;;7.53;79.35
77227;BME280;66234;47.642;19.144;2023-03-21T03:55:27;100254.59;;;7.49;79.36
77227;BME280;66234;47.642;19.144;2023-03-21T03:58:44;100260.94;;;7.48;79.62
77227;BME280;66234;47.642;19.144;2023-03-21T04:01:50;100257.34;;;7.56;79.12
77227;BME280;66234;47.642;19.144;2023-03-21T04:04:53;100255.13;;;7.59;78.92
77227;BME280;66234;47.642;19.144;2023-03-21T04:07:59;100245.38;;;7.66;78.94
77227;BME280;66234;47.642;19.144;2023-03-21T04:11:11;100255.44;;;7.71;78.67
77227;BME280;66234;47.642;19.144;2023-03-21T04:14:15;100251.34;;;7.68;78.52
77227;BME280;66234;47.642;19.144;2023-03-21T04:17:19;100252.34;;;7.67;79.12
77227;BME280;66234;47.642;19.144;2023-03-21T04:20:23;100257.63;;;7.61;79.15
77227;BME280;66234;47.642;19.144;2023-03-21T04:23:44;100255.44;;;7.50;78.92
77227;BME280;66234;47.642;19.144;2023-03-21T04:26:47;100251.63;;;7.73;78.72
77227;BME280;66234;47.642;19.144;2023-03-21T04:30:04;100252.72;;;7.64;78.22
77227;BME280;66234;47.642;19.144;2023-03-21T04:33:23;100248.44;;;7.49;78.99
77227;BME280;66234;47.642;19.144;2023-03-21T04:36:30;100245.25;;;7.53;78.74
77227;BME280;66234;47.642;19.144;2023-03-21T04:39:42;100249.75;;;7.53;78.97
77227;BME280;66234;47.642;19.144;2023-03-21T04:42:46;100241.94;;;7.51;79.00
77227;BME280;66234;47.642;19.144;2023-03-21T04:45:49;100241.03;;;7.44;79.21
77227;BME280;66234;47.642;19.144;2023-03-21T04:48:53;100247.09;;;7.38;79.01
77227;BME280;66234;47.642;19.144;2023-03-21T04:51:56;100242.25;;;7.27;79.31
77227;BME280;66234;47.642;19.144;2023-03-21T04:54:58;100246.53;;;7.43;79.14
77227;BME280;66234;47.642;19.144;2023-03-21T04:58:04;100242.69;;;7.45;79.00
77227;BME280;66234;47.642;19.144;2023-03-21T05:01:07;100246.91;;;7.40;78.97
77227;BME280;66234;47.642;19.144;2023-03-21T05:04:12;100247.94;;;7.39;79.15
77227;BME280;66234;47.642;19.144;2023-03-21T05:07:15;100257.53;;;7.40;78.98
77227;BME280;66234;47.642;19.144;2023-03-21T05:10:18;100261.41;;;7.37;79.33
77227;BME280;66234;47.642;19.144;2023-03-21T05:13:21;100259.84;;;7.43;79.11
77227;BME280;66234;47.642;19.144;2023-03-21T05:16:24;100267.72;;;7.51;78.84
77227;BME280;66234;47.642;19.144;2023-03-21T05:19:32;100264.31;;;7.57;78.90
77227;BME280;66234;47.642;19.144;2023-03-21T05:22:40;100258.69;;;7.66;77.97
77227;BME280;66234;47.642;19.144;2023-03-21T05:25:47;100259.63;;;7.80;78.02
77227;BME280;66234;47.642;19.144;2023-03-21T05:29:01;100269.78;;;7.91;77.84
77227;BME280;66234;47.642;19.144;2023-03-21T05:32:04;100253.50;;;8.21;77.59
77227;BME280;66234;47.642;19.144;2023-03-21T05:35:07;100265.63;;;8.45;76.86
77227;BME280;66234;47.642;19.144;2023-03-21T05:38:10;100265.88;;;8.50;76.73
77227;BME280;66234;47.642;19.144;2023-03-21T05:41:24;100265.59;;;8.66;76.37
77227;BME280;66234;47.642;19.144;2023-03-21T05:44:26;100268.63;;;8.97;75.25
77227;BME280;66234;47.642;19.144;2023-03-21T05:47:29;100276.91;;;9.43;74.20
77227;BME280;66234;47.642;19.144;2023-03-21T05:50:34;100273.09;;;9.71;73.24
77227;BME280;66234;47.642;19.144;2023-03-21T05:54:03;100272.31;;;9.90;72.11
77227;BME280;66234;47.642;19.144;2023-03-21T05:57:06;100286.72;;;10.02;72.01
77227;BME280;66234;47.642;19.144;2023-03-21T06:00:33;100267.47;;;10.20;71.03
77227;BME280;66234;47.642;19.144;2023-03-21T06:03:54;100279.41;;;10.31;70.42
77227;BME280;66234;47.642;19.144;2023-03-21T06:06:59;100279.63;;;10.42;70.36
77227;BME280;66234;47.642;19.144;2023-03-21T06:10:03;100277.97;;;10.48;70.47
77227;BME280;66234;47.642;19.144;2023-03-21T06:13:06;100278.59;;;10.56;69.78
77227;BME280;66234;47.642;19.144;2023-03-21T06:16:08;100279.63;;;10.62;69.40
77227;BME280;66234;47.642;19.144;2023-03-21T06:19:12;100280.25;;;10.64;70.05
77227;BME280;66234;47.642;19.144;2023-03-21T06:22:33;100281.66;;;10.86;69.18
77227;BME280;66234;47.642;19.144;2023-03-21T06:25:37;100275.44;;;11.11;67.67
77227;BME280;66234;47.642;19.144;2023-03-21T06:28:40;100281.63;;;11.12;67.41
77227;BME280;66234;47.642;19.144;2023-03-21T06:31:43;100271.34;;;11.09;67.63
77227;BME280;66234;47.642;19.144;2023-03-21T06:34:45;100273.97;;;11.15;67.41
77227;BME280;66234;47.642;19.144;2023-03-21T06:37:49;100275.00;;;11.21;67.43
77227;BME280;66234;47.642;19.144;2023-03-21T06:40:53;100275.13;;;11.39;66.49
77227;BME280;66234;47.642;19.144;2023-03-21T06:43:59;100269.50;;;11.60;66.15
77227;BME280;66234;47.642;19.144;2023-03-21T06:47:06;100275.88;;;11.72;65.18
77227;BME280;66234;47.642;19.144;2023-03-21T06:50:09;100276.19;;;11.82;64.69
77227;BME280;66234;47.642;19.144;2023-03-21T06:53:19;100274.00;;;12.04;64.33
77227;BME280;66234;47.642;19.144;2023-03-21T06:56:48;100279.63;;;12.27;63.18
77227;BME280;66234;47.642;19.144;2023-03-21T06:59:57;100281.13;;;12.47;62.17
77227;BME280;66234;47.642;19.144;2023-03-21T07:03:00;100281.84;;;12.61;61.42
77227;BME280;66234;47.642;19.144;2023-03-21T07:06:05;100286.00;;;12.57;61.79
77227;BME280;66234;47.642;19.144;2023-03-21T07:09:10;100284.59;;;12.54;61.17
77227;BME280;66234;47.642;19.144;2023-03-21T07:12:12;100289.88;;;12.61;60.46
77227;BME280;66234;47.642;19.144;2023-03-21T07:15:31;100275.63;;;12.67;60.60
77227;BME280;66234;47.642;19.144;2023-03-21T07:18:36;100286.66;;;12.77;60.32
77227;BME280;66234;47.642;19.144;2023-03-21T07:21:39;100272.31;;;12.89;60.21
77227;BME280;66234;47.642;19.144;2023-03-21T07:24:43;100275.88;;;13.08;59.25
77227;BME280;66234;47.642;19.144;2023-03-21T07:28:04;100278.78;;;13.24;58.63
77227;BME280;66234;47.642;19.144;2023-03-21T07:31:16;100282.97;;;13.20;58.69
77227;BME280;66234;47.642;19.144;2023-03-21T07:34:22;100284.06;;;13.31;58.01
77227;BME280;66234;47.642;19.144;2023-03-21T07:37:25;100287.88;;;13.42;57.55
77227;BME280;66234;47.642;19.144;2023-03-21T07:40:30;100289.75;;;13.59;57.11
77227;BME280;66234;47.642;19.144;2023-03-21T07:43:33;100285.78;;;13.80;55.98
77227;BME280;66234;47.642;19.144;2023-03-21T07:46:43;100288.63;;;13.96;55.75
77227;BME280;66234;47.642;19.144;2023-03-21T07:49:46;100294.59;;;14.28;54.61
77227;BME280;66234;47.642;19.144;2023-03-21T07:52:48;100286.91;;;14.31;53.94
77227;BME280;66234;47.642;19.144;2023-03-21T07:55:52;100277.81;;;14.32;53.59
77227;BME280;66234;47.642;19.144;2023-03-21T07:58:57;100278.88;;;14.43;53.78
77227;BME280;66234;47.642;19.144;2023-03-21T08:02:00;100280.78;;;14.77;53.17
77227;BME280;66234;47.642;19.144;2023-03-21T08:05:03;100276.69;;;14.86;53.46
77227;BME280;66234;47.642;19.144;2023-03-21T08:08:06;100278.91;;;15.12;52.58
77227;BME280;66234;47.642;19.144;2023-03-21T08:11:09;100285.78;;;15.20;51.36
77227;BME280;66234;47.642;19.144;2023-03-21T08:14:12;100286.97;;;15.12;51.37
77227;BME280;66234;47.642;19.144;2023-03-21T08:17:15;100277.94;;;15.41;50.77
77227;BME280;66234;47.642;19.144;2023-03-21T08:20:19;100280.16;;;15.56;50.39
77227;BME280;66234;47.642;19.144;2023-03-21T08:23:23;100282.75;;;15.28;49.58
77227;BME280;66234;47.642;19.144;2023-03-21T08:26:26;100275.72;;;15.38;49.32
77227;BME280;66234;47.642;19.144;2023-03-21T08:29:28;100287.41;;;15.55;47.58
77227;BME280;66234;47.642;19.144;2023-03-21T08:32:31;100283.41;;;15.58;47.64
77227;BME280;66234;47.642;19.144;2023-03-21T08:35:35;100275.72;;;16.06;45.37
77227;BME280;66234;47.642;19.144;2023-03-21T08:38:40;100285.53;;;16.12;44.30
77227;BME280;66234;47.642;19.144;2023-03-21T08:41:43;100288.44;;;16.22;44.37
77227;BME280;66234;47.642;19.144;2023-03-21T08:44:47;100280.19;;;16.28;43.25
77227;BME280;66234;47.642;19.144;2023-03-21T08:47:52;100283.13;;;16.27;42.67
77227;BME280;66234;47.642;19.144;2023-03-21T08:50:55;100299.22;;;16.50;42.38
77227;BME280;66234;47.642;19.144;2023-03-21T08:53:57;100286.63;;;16.56;42.17
77227;BME280;66234;47.642;19.144;2023-03-21T08:57:00;100292.44;;;16.64;42.07
77227;BME280;66234;47.642;19.144;2023-03-21T09:00:09;100290.13;;;16.73;42.34
77227;BME280;66234;47.642;19.144;2023-03-21T09:03:17;100289.78;;;16.36;43.47
77227;BME280;66234;47.642;19.144;2023-03-21T09:06:21;100286.25;;;16.35;44.98
77227;BME280;66234;47.642;19.144;2023-03-21T09:09:28;100289.16;;;16.46;43.77
77227;BME280;66234;47.642;19.144;2023-03-21T09:12:33;100282.56;;;16.41;44.90
77227;BME280;66234;47.642;19.144;2023-03-21T09:15:36;100284.28;;;16.31;44.26
77227;BME280;66234;47.642;19.144;2023-03-21T09:18:39;100286.25;;;16.35;43.49
77227;BME280;66234;47.642;19.144;2023-03-21T09:21:52;100281.97;;;16.51;43.90
77227;BME280;66234;47.642;19.144;2023-03-21T09:24:55;100287.41;;;16.39;42.50
77227;BME280;66234;47.642;19.144;2023-03-21T09:27:59;100291.66;;;16.07;43.31
77227;BME280;66234;47.642;19.144;2023-03-21T09:31:04;100293.53;;;16.35;42.92
77227;BME280;66234;47.642;19.144;2023-03-21T09:34:07;100284.88;;;16.33;43.54
77227;BME280;66234;47.642;19.144;2023-03-21T09:37:11;100290.59;;;16.36;42.27
77227;BME280;66234;47.642;19.144;2023-03-21T09:47:03;100290.78;;;16.47;44.52
77227;BME280;66234;47.642;19.144;2023-03-21T09:50:17;100286.94;;;16.42;44.00
77227;BME280;66234;47.642;19.144;2023-03-21T09:53:26;100274.97;;;16.38;43.17
77227;BME280;66234;47.642;19.144;2023-03-21T09:56:32;100279.75;;;16.20;44.68
77227;BME280;66234;47.642;19.144;2023-03-21T09:59:37;100275.09;;;16.15;44.01
77227;BME280;66234;47.642;19.144;2023-03-21T10:02:47;100281.06;;;16.17;44.13
77227;BME280;66234;47.642;19.144;2023-03-21T10:05:54;100268.56;;;16.28;41.74
77227;BME280;66234;47.642;19.144;2023-03-21T10:09:05;100275.13;;;16.32;42.76
77227;BME280;66234;47.642;19.144;2023-03-21T10:12:18;100260.59;;;16.66;41.55
77227;BME280;66234;47.642;19.144;2023-03-21T10:15:25;100268.72;;;16.50;41.46
77227;BME280;66234;47.642;19.144;2023-03-21T10:18:29;100258.59;;;16.57;41.13
77227;BME280;66234;47.642;19.144;2023-03-21T10:21:32;100261.91;;;16.64;40.01
77227;BME280;66234;47.642;19.144;2023-03-21T10:24:55;100276.31;;;16.86;41.98
77227;BME280;66234;47.642;19.144;2023-03-21T10:27:58;100262.19;;;17.17;40.95
77227;BME280;66234;47.642;19.144;2023-03-21T10:31:04;100266.66;;;17.28;40.64
77227;BME280;66234;47.642;19.144;2023-03-21T10:34:15;100257.22;;;17.30;39.67
77227;BME280;66234;47.642;19.144;2023-03-21T10:37:20;100252.50;;;17.42;39.78
77227;BME280;66234;47.642;19.144;2023-03-21T10:40:24;100255.28;;;17.26;40.28
77227;BME280;66234;47.642;19.144;2023-03-21T10:46:29;100253.25;;;17.16;39.41
77227;BME280;66234;47.642;19.144;2023-03-21T10:49:36;100251.50;;;17.27;39.76
77227;BME280;66234;47.642;19.144;2023-03-21T10:53:01;100251.28;;;16.74;39.95
77227;BME280;66234;47.642;19.144;2023-03-21T10:56:07;100249.88;;;16.88;40.71
77227;BME280;66234;47.642;19.144;2023-03-21T10:59:17;100242.78;;;16.65;40.56
77227;BME280;66234;47.642;19.144;2023-03-21T11:02:36;100239.34;;;16.53;41.67
77227;BME280;66234;47.642;19.144;2023-03-21T11:05:40;100242.75;;;16.82;40.49
77227;BME280;66234;47.642;19.144;2023-03-21T11:08:46;100247.91;;;17.00;40.28
77227;BME280;66234;47.642;19.144;2023-03-21T11:12:02;100240.63;;;16.84;38.98
77227;BME280;66234;47.642;19.144;2023-03-21T11:18:41;100228.00;;;17.06;39.03
77227;BME280;66234;47.642;19.144;2023-03-21T11:21:45;100220.75;;;17.33;39.44
77227;BME280;66234;47.642;19.144;2023-03-21T11:24:52;100227.31;;;17.37;39.07
77227;BME280;66234;47.642;19.144;2023-03-21T11:27:55;100208.69;;;17.40;40.01
77227;BME280;66234;47.642;19.144;2023-03-21T11:31:00;100203.00;;;17.37;39.37
77227;BME280;66234;47.642;19.144;2023-03-21T11:34:07;100201.09;;;17.59;38.07
77227;BME280;66234;47.642;19.144;2023-03-21T11:37:32;100196.50;;;17.59;37.32
77227;BME280;66234;47.642;19.144;2023-03-21T11:40:36;100196.63;;;17.69;35.44
77227;BME280;66234;47.642;19.144;2023-03-21T11:43:50;100181.44;;;17.63;36.95
77227;BME280;66234;47.642;19.144;2023-03-21T11:46:54;100180.28;;;18.13;35.08
77227;BME280;66234;47.642;19.144;2023-03-21T11:49:56;100176.59;;;18.24;35.22
77227;BME280;66234;47.642;19.144;2023-03-21T11:56:35;100185.38;;;17.34;37.97
77227;BME280;66234;47.642;19.144;2023-03-21T11:59:53;100174.22;;;17.26;36.86
77227;BME280;66234;47.642;19.144;2023-03-21T12:06:24;100177.66;;;17.64;36.63
77227;BME280;66234;47.642;19.144;2023-03-21T12:09:36;100182.28;;;17.69;36.40
77227;BME280;66234;47.642;19.144;2023-03-21T12:26:17;100179.53;;;17.21;38.41
77227;BME280;66234;47.642;19.144;2023-03-21T12:29:43;100169.78;;;16.77;39.09
77227;BME280;66234;47.642;19.144;2023-03-21T12:39:26;100161.16;;;18.24;37.38
77227;BME280;66234;47.642;19.144;2023-03-21T12:42:36;100158.19;;;19.09;36.32
77227;BME280;66234;47.642;19.144;2023-03-21T12:45:45;100147.84;;;18.49;37.16
77227;BME280;66234;47.642;19.144;2023-03-21T12:52:06;100151.66;;;19.05;36.44
77227;BME280;66234;47.642;19.144;2023-03-21T12:55:17;100133.25;;;20.19;34.46
77227;BME280;66234;47.642;19.144;2023-03-21T12:58:24;100132.63;;;20.62;32.78
77227;BME280;66234;47.642;19.144;2023-03-21T13:01:31;100139.66;;;18.91;34.35
77227;BME280;66234;47.642;19.144;2023-03-21T13:05:00;100142.56;;;18.74;35.12
77227;BME280;66234;47.642;19.144;2023-03-21T13:11:32;100125.81;;;17.46;38.67
77227;BME280;66234;47.642;19.144;2023-03-21T13:14:43;100120.25;;;17.57;38.75
77227;BME280;66234;47.642;19.144;2023-03-21T13:17:56;100117.06;;;18.70;36.30
77227;BME280;66234;47.642;19.144;2023-03-21T13:21:06;100122.88;;;19.86;34.19
77227;BME280;66234;47.642;19.144;2023-03-21T13:24:23;100110.38;;;20.50;32.36
77227;BME280;66234;47.642;19.144;2023-03-21T13:27:33;100102.75;;;20.62;31.83
77227;BME280;66234;47.642;19.144;2023-03-21T13:30:37;100109.78;;;20.68;31.17
77227;BME280;66234;47.642;19.144;2023-03-21T13:33:41;100095.91;;;21.38;30.33
77227;BME280;66234;47.642;19.144;2023-03-21T13:36:48;100099.13;;;22.74;28.52
77227;BME280;66234;47.642;19.144;2023-03-21T13:39:51;100099.47;;;22.92;28.06
77227;BME280;66234;47.642;19.144;2023-03-21T13:42:57;100100.28;;;21.83;28.52
77227;BME280;66234;47.642;19.144;2023-03-21T13:46:09;100105.31;;;21.61;28.91
77227;BME280;66234;47.642;19.144;2023-03-21T13:49:24;100091.16;;;22.54;27.65
77227;BME280;66234;47.642;19.144;2023-03-21T13:52:28;100085.69;;;22.59;27.67
77227;BME280;66234;47.642;19.144;2023-03-21T13:55:39;100080.94;;;22.13;28.04
77227;BME280;66234;47.642;19.144;2023-03-21T14:05:20;100069.19;;;23.54;25.57
77227;BME280;66234;47.642;19.144;2023-03-21T14:08:26;100073.41;;;22.33;27.23
77227;BME280;66234;47.642;19.144;2023-03-21T14:11:39;100069.78;;;23.09;26.74
77227;BME280;66234;47.642;19.144;2023-03-21T14:14:57;100059.88;;;21.17;29.70
77227;BME280;66234;47.642;19.144;2023-03-21T14:18:16;100068.69;;;20.84;30.47
77227;BME280;66234;47.642;19.144;2023-03-21T14:21:47;100049.50;;;21.97;28.79
77227;BME280;66234;47.642;19.144;2023-03-21T14:24:56;100054.16;;;20.45;31.18
77227;BME280;66234;47.642;19.144;2023-03-21T14:28:02;100050.97;;;20.03;31.40
77227;BME280;66234;47.642;19.144;2023-03-21T14:31:05;100048.97;;;19.08;32.56
77227;BME280;66234;47.642;19.144;2023-03-21T14:34:09;100050.31;;;20.66;30.09
77227;BME280;66234;47.642;19.144;2023-03-21T14:37:12;100049.53;;;20.51;30.30
77227;BME280;66234;47.642;19.144;2023-03-21T14:40:22;100042.50;;;21.52;29.10
77227;BME280;66234;47.642;19.144;2023-03-21T14:43:26;100046.34;;;20.09;31.77
77227;BME280;66234;47.642;19.144;2023-03-21T14:46:28;100042.03;;;21.40;29.90
77227;BME280;66234;47.642;19.144;2023-03-21T14:49:33;100038.31;;;21.65;29.40
77227;BME280;66234;47.642;19.144;2023-03-21T14:52:36;100038.81;;;21.72;28.96
77227;BME280;66234;47.642;19.144;2023-03-21T14:55:51;100048.41;;;20.62;30.37
77227;BME280;66234;47.642;19.144;2023-03-21T14:58:58;100044.59;;;20.63;30.33
77227;BME280;66234;47.642;19.144;2023-03-21T15:02:16;100039.03;;;19.74;32.44
77227;BME280;66234;47.642;19.144;2023-03-21T15:05:30;100040.66;;;20.00;32.18
77227;BME280;66234;47.642;19.144;2023-03-21T15:08:34;100031.16;;;20.03;32.59
77227;BME280;66234;47.642;19.144;2023-03-21T15:11:37;100039.19;;;20.58;31.74
77227;BME280;66234;47.642;19.144;2023-03-21T15:14:40;100043.47;;;20.79;31.24
77227;BME280;66234;47.642;19.144;2023-03-21T15:17:43;100038.59;;;20.66;31.42
77227;BME280;66234;47.642;19.144;2023-03-21T15:20:47;100032.47;;;21.04;31.01
77227;BME280;66234;47.642;19.144;2023-03-21T15:23:58;100035.50;;;21.41;30.35
77227;BME280;66234;47.642;19.144;2023-03-21T15:27:07;100032.19;;;21.49;30.42
77227;BME280;66234;47.642;19.144;2023-03-21T15:30:23;100028.66;;;21.87;29.62
77227;BME280;66234;47.642;19.144;2023-03-21T15:33:26;100018.47;;;21.98;29.43
77227;BME280;66234;47.642;19.144;2023-03-21T15:36:34;100011.00;;;22.08;29.34
77227;BME280;66234;47.642;19.144;2023-03-21T15:39:39;100021.16;;;22.50;28.76
77227;BME280;66234;47.642;19.144;2023-03-21T15:42:42;100018.38;;;22.31;28.77
77227;BME280;66234;47.642;19.144;2023-03-21T15:45:53;100025.69;;;21.45;30.02
77227;BME280;66234;47.642;19.144;2023-03-21T15:52:15;100027.91;;;19.55;32.35
77227;BME280;66234;47.642;19.144;2023-03-21T15:55:28;100027.78;;;18.95;33.50
77227;BME280;66234;47.642;19.144;2023-03-21T15:58:35;100032.91;;;18.35;34.97
77227;BME280;66234;47.642;19.144;2023-03-21T16:01:40;100036.50;;;17.99;35.73
77227;BME280;66234;47.642;19.144;2023-03-21T16:08:05;100031.16;;;17.72;35.98
77227;BME280;66234;47.642;19.144;2023-03-21T16:14:26;100035.69;;;17.98;35.01
77227;BME280;66234;47.642;19.144;2023-03-21T16:20:38;100031.69;;;17.16;37.28
77227;BME280;66234;47.642;19.144;2023-03-21T16:23:42;100045.31;;;17.00;37.95
77227;BME280;66234;47.642;19.144;2023-03-21T16:26:46;100042.22;;;16.91;38.50
77227;BME280;66234;47.642;19.144;2023-03-21T16:29:52;100039.69;;;16.58;39.48
77227;BME280;66234;47.642;19.144;2023-03-21T16:32:55;100038.41;;;16.44;39.80
77227;BME280;66234;47.642;19.144;2023-03-21T16:35:58;100052.16;;;16.26;39.90
77227;BME280;66234;47.642;19.144;2023-03-21T16:39:13;100049.16;;;16.22;40.11
77227;BME280;66234;47.642;19.144;2023-03-21T16:42:17;100051.47;;;15.97;40.45
77227;BME280;66234;47.642;19.144;2023-03-21T16:45:20;100051.78;;;15.84;40.94
77227;BME280;66234;47.642;19.144;2023-03-21T16:48:24;100049.94;;;15.68;41.61
77227;BME280;66234;47.642;19.144;2023-03-21T16:51:35;100060.94;;;15.50;42.07
77227;BME280;66234;47.642;19.144;2023-03-21T16:54:39;100069.94;;;15.56;42.35
77227;BME280;66234;47.642;19.144;2023-03-21T16:57:43;100067.59;;;15.31;42.99
77227;BME280;66234;47.642;19.144;2023-03-21T17:00:46;100080.84;;;15.21;43.53
77227;BME280;66234;47.642;19.144;2023-03-21T17:03:48;100076.31;;;15.10;43.75
77227;BME280;66234;47.642;19.144;2023-03-21T17:06:51;100084.22;;;15.00;44.09
77227;BME280;66234;47.642;19.144;2023-03-21T17:09:54;100080.53;;;14.90;44.39
77227;BME280;66234;47.642;19.144;2023-03-21T17:12:57;100082.38;;;14.89;44.45
77227;BME280;66234;47.642;19.144;2023-03-21T17:16:00;100082.56;;;14.71;45.03
77227;BME280;66234;47.642;19.144;2023-03-21T17:19:09;100089.97;;;14.52;46.04
77227;BME280;66234;47.642;19.144;2023-03-21T17:22:12;100089.06;;;14.35;46.17
77227;BME280;66234;47.642;19.144;2023-03-21T17:25:16;100093.00;;;14.21;46.32
77227;BME280;66234;47.642;19.144;2023-03-21T17:28:19;100090.19;;;14.16;46.70
77227;BME280;66234;47.642;19.144;2023-03-21T17:31:24;100095.66;;;14.10;46.93
77227;BME280;66234;47.642;19.144;2023-03-21T17:34:28;100088.19;;;14.00;47.15
77227;BME280;66234;47.642;19.144;2023-03-21T17:37:32;100088.19;;;13.89;47.47
77227;BME280;66234;47.642;19.144;2023-03-21T17:40:35;100097.75;;;13.85;47.39
77227;BME280;66234;47.642;19.144;2023-03-21T17:43:39;100098.69;;;13.79;47.82
77227;BME280;66234;47.642;19.144;2023-03-21T17:46:41;100090.38;;;13.69;47.92
77227;BME280;66234;47.642;19.144;2023-03-21T17:49:44;100088.72;;;13.68;48.14
77227;BME280;66234;47.642;19.144;2023-03-21T17:52:48;100096.19;;;13.54;48.68
77227;BME280;66234;47.642;19.144;2023-03-21T17:55:52;100099.50;;;13.38;48.63
77227;BME280;66234;47.642;19.144;2023-03-21T17:58:56;100107.53;;;13.27;49.16